• Join FlightAware (Why Join?)
  • Login
  • US Flag 
07:01AM EDT


 

Airport Tracker/Info


-or-


 

Live Flight TrackerFlight Track Log ✈ CUA5906 ✈ 08-Nov-2013 ✈ ZSLG / LYG - ZBNY / NAY

Flight Track Log - Related Links

Times and Time Zones

All times are in EST time to prevent confusion due to time zone crossing. See the CUA5906 flight status page for this flight to view local times or setup timezone preferences in your user account.

Time Position Orientation Groundspeed Altitude Reporting Facility
EST Latitude Longitude Course Direction KTS MPH feet Rate Location/Type
02:02AM 37.3422 117.5964 340° North  Level Estimated
02:03AM 37.4235 117.5574 339° North  Level Estimated
02:04AM 37.5047 117.5184 339° North  Level Estimated
02:05AM 37.5860 117.4792 339° North  Level Estimated
02:06AM 37.6672 117.4400 339° North  Level Estimated
02:07AM 37.7484 117.4007 339° North  Level Estimated
02:08AM 37.8296 117.3613 339° North  Level Estimated
02:09AM 37.9108 117.3219 339° North  Level Estimated
02:09AM 37.6840 116.6170 339° North 380 437 20,700  Level FlightAware
02:10AM 37.9920 117.2823 339° North  Level Estimated
02:10AM 37.7510 116.5910 343° North 360 414 20,000  Level FlightAware
02:10AM 37.7970 116.5730 343° North 358 412 19,700 -360 Descending FlightAware
02:11AM 37.8380 116.5570 343° North 358 412 19,700  Level FlightAware
02:11AM 37.9120 116.5290 343° North 362 417 19,700  Level FlightAware
02:11AM 37.9240 116.5240 342° North 362 417 19,700  Level FlightAware
02:12AM 37.9950 116.4970 343° North 362 417 19,700 -540 Level FlightAware
02:13AM 38.0630 116.4710 343° North 368 423 19,000 -1,140 Descending FlightAware
02:13AM 38.1230 116.4480 343° North 370 426 18,400 -1,020 Descending FlightAware
02:14AM 38.1630 116.4330 344° North 368 423 18,000 -1,020 Descending FlightAware
02:15AM 38.2440 116.4010 343° North 361 415 17,200 -1,020 Descending FlightAware
02:15AM 38.2980 116.3800 343° North 358 412 16,600 -1,020 Descending FlightAware
02:16AM 38.3610 116.3600 346° North 355 409 16,000 -1,020 Descending FlightAware
02:17AM 38.4160 116.3470 350° North 350 403 15,400 -1,020 Descending FlightAware
02:17AM 38.4650 116.3360 350° North 351 404 14,900 -540 Descending FlightAware
02:18AM 38.5220 116.3230 350° North 349 402 14,800 -540 Descending FlightAware
02:18AM 38.5770 116.3090 349° North 355 409 14,300 -780 Descending FlightAware
02:19AM 38.6390 116.2950 350° North 351 404 13,900 -420 Descending FlightAware
02:19AM 38.6930 116.2820 349° North 350 403 13,800 -120 Descending FlightAware
02:20AM 38.7800 116.2620 350° North 346 398 13,800  Level FlightAware
02:21AM 38.8250 116.2510 349° North 345 397 13,800 -300 Level FlightAware
02:21AM 38.8840 116.2370 350° North 345 397 13,500 -600 Descending FlightAware
02:23AM 38.9840 116.2130 349° North 297 342 12,800 -420 Descending FlightAware
02:23AM 39.0290 116.2020 349° North 264 304 12,800 -480 Level FlightAware
02:24AM 39.0680 116.2050 North 265 305 12,300 -1,860 Descending FlightAware
02:24AM 39.1180 116.2190 12° North 294 338 10,600 -2,580 Descending FlightAware
02:25AM 39.1440 116.2260 12° North 294 338 9,900 -1,800 Descending FlightAware
02:25AM 39.1750 116.2350 13° North 285 328 9,300 -1,680 Descending FlightAware
02:26AM 39.2200 116.2470 12° North 278 320 8,300 -1,920 Descending FlightAware
02:26AM 39.2560 116.2570 12° North 280 322 7,300 -2,100 Descending FlightAware
02:27AM 39.3060 116.2710 12° North 282 325 6,000 -1,980 Descending FlightAware
02:27AM 39.3350 116.2790 12° North 285 328 5,200 -1,680 Descending FlightAware
02:28AM 39.3890 116.2940 12° North 279 321 4,200 -1,440 Descending FlightAware
02:28AM 39.4340 116.3110 16° North 277 319 3,400 -1,320 Descending FlightAware
02:29AM 39.4810 116.3330 20° North 272 313 2,600 -900 Descending FlightAware
02:30AM 39.5140 116.3480 19° North 259 298 2,400 -540 Descending FlightAware
02:30AM 39.5360 116.3580 19° North 247 284 2,200 -420 Descending FlightAware
02:30AM 39.5750 116.3760 20° North 219 252 2,000 -180 Descending FlightAware
02:31AM 39.6080 116.3910 19° North 196 226 2,000  Level FlightAware
02:32AM 39.6300 116.3970 12° North 182 209 2,000  Level FlightAware
02:32AM 39.6630 116.3950 357° North 167 192 2,000 -420 Level FlightAware
02:33AM 39.6930 116.3930 357° North 159 183 1,500 -900 Descending FlightAware
02:34AM 39.7260 116.3910 357° North 150 173 800 -900 Descending FlightAware
02:34AM 39.7460 116.3890 356° North 148 170 400 -780 Descending FlightAware
02:34AM 39.7520 116.3890 360° North 147 169 300 -180 Descending FlightAware
02:35AM 39.7670 116.3870 354° North 147 169 300  Level FlightAware
02:38AM 39.7794 116.3864 358° North  Level Estimated
02:39AM 39.7794 116.3864 349° North  Level Estimated
02:40AM 39.7794 116.3864 349° North  Level Estimated
02:41AM 39.7794 116.3864 349° North  Level Estimated
02:42AM 39.7794 116.3864 349° North  Level Estimated
02:43AM 39.7794 116.3864 349° North  Level Estimated
02:44AM 39.7794 116.3864 349° North  Level Estimated
02:45AM 39.7794 116.3864 349° North  Level Estimated